createdAt,value
2018-10-07T00:00:51.813Z,98701.74
2018-10-07T00:03:26.028Z,98714.28
2018-10-07T00:06:00.041Z,98722.66
2018-10-07T00:08:33.963Z,98726.08
2018-10-07T00:11:09.630Z,98724.84
2018-10-07T00:13:43.833Z,98725.10
2018-10-07T00:16:17.642Z,98724.88
2018-10-07T00:18:51.650Z,98720.83
2018-10-07T00:21:25.457Z,98725.14
2018-10-07T00:23:59.414Z,98717.17
2018-10-07T00:26:34.915Z,98719.20
2018-10-07T00:29:08.532Z,98718.31
2018-10-07T00:31:48.401Z,98714.85
2018-10-07T00:34:23.582Z,98714.70
2018-10-07T00:36:58.457Z,98720.29
2018-10-07T00:39:32.821Z,98726.15
2018-10-07T00:42:07.856Z,98720.41
2018-10-07T00:44:43.746Z,98730.58
2018-10-07T00:47:18.033Z,98727.80
2018-10-07T00:49:52.315Z,98730.46
2018-10-07T00:52:27.101Z,98726.84
2018-10-07T00:54:55.700Z,98723.56
2018-10-07T00:57:24.301Z,98717.52
2018-10-07T00:59:58.248Z,98726.91
2018-10-07T01:02:32.141Z,98729.64
2018-10-07T01:05:06.728Z,98730.75
2018-10-07T01:07:42.364Z,98730.16
2018-10-07T01:10:15.922Z,98730.54
2018-10-07T01:12:50.320Z,98732.44
2018-10-07T01:15:23.755Z,98734.45
2018-10-07T01:17:59.537Z,98731.69
2018-10-07T01:20:30.417Z,98729.41
2018-10-07T01:23:05.496Z,98737.36
2018-10-07T01:25:39.506Z,98737.26
2018-10-07T01:28:13.855Z,98739.55
2018-10-07T01:30:42.659Z,98735.01
2018-10-07T01:33:17.140Z,98742.02
2018-10-07T01:35:51.015Z,98737.73
2018-10-07T01:38:25.424Z,98739.77
2018-10-07T01:40:59.585Z,98751.42
2018-10-07T01:43:33.568Z,98751.30
2018-10-07T01:46:08.853Z,98754.86
2018-10-07T01:48:42.882Z,98745.77
2018-10-07T01:51:17.189Z,98737.50
2018-10-07T01:53:52.826Z,98739.58
2018-10-07T01:56:26.757Z,98745.17
2018-10-07T01:59:01.726Z,98745.88
2018-10-07T02:01:35.469Z,98750.30
2018-10-07T02:04:04.174Z,98747.29
2018-10-07T02:06:38.403Z,98751.63
2018-10-07T02:09:13.738Z,98781.92
2018-10-07T02:11:47.328Z,98778.02
2018-10-07T02:14:21.991Z,98774.29
2018-10-07T02:16:55.297Z,98766.29
2018-10-07T02:19:30.036Z,98759.22
2018-10-07T02:22:05.300Z,98775.28
2018-10-07T02:24:39.415Z,98784.66
2018-10-07T02:27:13.045Z,98779.73
2018-10-07T02:29:47.164Z,98778.00
2018-10-07T02:32:21.194Z,98775.39
2018-10-07T02:34:55.813Z,98764.27
2018-10-07T02:37:24.556Z,98771.77
2018-10-07T02:39:59.850Z,98773.67
2018-10-07T02:42:33.992Z,98779.02
2018-10-07T02:45:07.700Z,98778.70
2018-10-07T02:47:41.820Z,98774.89
2018-10-07T02:50:23.966Z,98769.64
2018-10-07T02:53:00.428Z,98764.94
2018-10-07T02:55:36.990Z,98760.47
2018-10-07T02:58:12.327Z,98761.60
2018-10-07T03:00:46.136Z,98768.70
2018-10-07T03:03:20.889Z,98772.09
2018-10-07T03:05:56.740Z,98778.83
2018-10-07T03:08:30.295Z,98777.98
2018-10-07T03:10:58.829Z,98785.06
2018-10-07T03:13:33.986Z,98790.72
2018-10-07T03:16:08.982Z,98787.25
2018-10-07T03:18:47.313Z,98785.53
2018-10-07T03:21:26.510Z,98785.75
2018-10-07T03:24:00.791Z,98787.79
2018-10-07T03:26:34.613Z,98795.19
2018-10-07T03:29:08.667Z,98795.98
2018-10-07T03:31:42.523Z,98795.88
2018-10-07T03:34:16.949Z,98801.68
2018-10-07T03:36:51.463Z,98806.38
2018-10-07T03:39:25.430Z,98807.58
2018-10-07T03:41:59.553Z,98817.42
2018-10-07T03:44:34.544Z,98821.73
2018-10-07T03:47:09.057Z,98811.72
2018-10-07T03:49:43.554Z,98813.70
2018-10-07T03:52:17.892Z,98808.41
2018-10-07T03:54:51.924Z,98808.23
2018-10-07T03:57:25.775Z,98820.30
2018-10-07T04:00:02.537Z,98837.31
2018-10-07T04:02:36.465Z,98839.20
2018-10-07T04:05:11.683Z,98846.29
2018-10-07T04:07:46.016Z,98849.67
2018-10-07T04:10:20.392Z,98846.09
2018-10-07T04:12:54.487Z,98853.00
2018-10-07T04:15:23.313Z,98863.34
2018-10-07T04:17:57.374Z,98874.46
2018-10-07T04:20:32.566Z,98879.13
2018-10-07T04:23:07.072Z,98884.02
2018-10-07T04:25:41.029Z,98880.76
2018-10-07T04:28:15.155Z,98887.80
2018-10-07T04:37:48.419Z,98893.92
2018-10-07T04:40:22.852Z,98895.59
2018-10-07T04:42:57.679Z,98900.91
2018-10-07T04:45:32.027Z,98906.16
2018-10-07T04:48:00.801Z,98909.09
2018-10-07T04:50:34.482Z,98909.27
2018-10-07T04:53:10.060Z,98906.78
2018-10-07T04:55:44.494Z,98914.45
2018-10-07T04:58:19.565Z,98923.12
2018-10-07T05:00:53.920Z,98916.94
2018-10-07T05:03:29.880Z,98926.20
2018-10-07T05:06:05.271Z,98921.80
2018-10-07T05:08:39.414Z,98921.80
2018-10-07T05:11:14.642Z,98914.26
2018-10-07T05:13:56.040Z,98921.20
2018-10-07T05:16:41.903Z,98916.87
2018-10-07T05:19:10.672Z,98928.73
2018-10-07T05:21:39.252Z,98936.86
2018-10-07T05:24:13.146Z,98941.95
2018-10-07T05:26:46.982Z,98937.01
2018-10-07T05:29:20.762Z,98938.12
2018-10-07T05:31:55.678Z,98946.20
2018-10-07T05:34:31.423Z,98957.08
2018-10-07T05:37:07.090Z,98956.49
2018-10-07T05:39:44.320Z,98964.16
2018-10-07T05:42:21.351Z,98972.94
2018-10-07T05:44:57.854Z,98967.88
2018-10-07T05:47:34.855Z,98975.89
2018-10-07T05:50:09.873Z,98978.90
2018-10-07T05:52:38.532Z,98986.70
2018-10-07T05:55:07.116Z,98991.95
2018-10-07T05:57:41.111Z,98999.95
2018-10-07T06:00:18.566Z,98995.63
2018-10-07T06:02:54.464Z,99003.03
2018-10-07T06:05:29.714Z,99018.78
2018-10-07T06:08:04.195Z,99030.41
2018-10-07T06:10:38.598Z,99041.30
2018-10-07T06:13:12.934Z,99056.70
2018-10-07T06:15:49.550Z,99065.95
2018-10-07T06:18:24.140Z,99069.31
2018-10-07T06:20:57.912Z,99074.72
2018-10-07T06:23:33.169Z,99083.77
2018-10-07T06:26:07.428Z,99090.39
2018-10-07T06:28:42.082Z,99100.48
2018-10-07T06:31:16.408Z,99115.67
2018-10-07T06:33:52.175Z,99120.79
2018-10-07T06:36:26.289Z,99124.53
2018-10-07T06:39:01.200Z,99123.42
2018-10-07T06:41:36.002Z,99127.47
2018-10-07T06:44:09.766Z,99125.98
2018-10-07T06:46:43.832Z,99122.00
2018-10-07T06:49:18.277Z,99123.84
2018-10-07T06:51:52.898Z,99119.87
2018-10-07T06:54:27.095Z,99107.33
2018-10-07T06:57:00.998Z,99105.05
2018-10-07T06:59:37.210Z,99104.64
2018-10-07T07:02:11.533Z,99104.78
2018-10-07T07:04:46.527Z,99095.56
2018-10-07T07:07:19.957Z,99099.68
2018-10-07T07:09:57.214Z,99099.97
2018-10-07T07:12:33.369Z,99098.12
2018-10-07T07:15:07.454Z,99114.09
2018-10-07T07:17:42.299Z,99114.97
2018-10-07T07:20:16.752Z,99138.05
2018-10-07T07:22:51.076Z,99139.89
2018-10-07T07:25:25.949Z,99141.59
2018-10-07T07:28:00.655Z,99139.23
2018-10-07T07:30:34.660Z,99134.56
2018-10-07T07:33:08.065Z,99140.94
2018-10-07T07:35:42.489Z,99146.34
2018-10-07T07:38:16.587Z,99148.48
2018-10-07T07:40:51.625Z,99143.75
2018-10-07T07:43:25.337Z,99150.95
2018-10-07T07:45:59.397Z,99152.66
2018-10-07T07:48:28.812Z,99152.05
2018-10-07T07:50:58.528Z,99153.47
2018-10-07T07:53:32.788Z,99156.23
2018-10-07T07:56:11.809Z,99159.92
2018-10-07T07:58:46.138Z,99165.95
2018-10-07T08:01:20.157Z,99166.75
2018-10-07T08:03:56.838Z,99170.06
2018-10-07T08:06:31.440Z,99170.48
2018-10-07T08:09:07.319Z,99177.05
2018-10-07T08:11:42.687Z,99178.81
2018-10-07T08:14:17.975Z,99181.52
2018-10-07T08:16:51.693Z,99188.59
2018-10-07T08:19:25.056Z,99193.96
2018-10-07T08:21:54.062Z,99188.16
2018-10-07T08:24:29.585Z,99188.80
2018-10-07T08:27:05.579Z,99188.16
2018-10-07T08:29:42.160Z,99186.05
2018-10-07T08:32:16.925Z,99192.72
2018-10-07T08:34:53.562Z,99191.22
2018-10-07T08:37:27.029Z,99183.98
2018-10-07T08:40:01.021Z,99185.97
2018-10-07T08:42:35.140Z,99193.92
2018-10-07T08:45:09.841Z,99190.05
2018-10-07T08:47:46.216Z,99203.25
2018-10-07T08:50:20.628Z,99207.41
2018-10-07T08:52:54.766Z,99206.41
2018-10-07T08:55:28.833Z,99206.00
2018-10-07T08:58:03.664Z,99212.03
2018-10-07T09:00:38.563Z,99218.13
2018-10-07T09:03:16.004Z,99214.55
2018-10-07T09:05:52.736Z,99213.23
2018-10-07T09:08:22.118Z,99213.89
2018-10-07T09:10:51.010Z,99207.78
2018-10-07T09:13:19.653Z,99209.09
2018-10-07T09:15:48.435Z,99213.11
2018-10-07T09:18:17.665Z,99210.00
2018-10-07T09:20:46.750Z,99220.39
2018-10-07T09:23:15.866Z,99215.22
2018-10-07T09:25:44.449Z,99215.73
2018-10-07T09:28:13.337Z,99222.83
2018-10-07T09:30:41.918Z,99224.58
2018-10-07T09:33:10.493Z,99221.45
2018-10-07T09:35:39.070Z,99223.34
2018-10-07T09:38:08.004Z,99223.52
2018-10-07T09:40:36.601Z,99219.82
2018-10-07T09:43:05.181Z,99229.05
2018-10-07T09:45:33.766Z,99228.47
2018-10-07T09:48:02.362Z,99237.16
2018-10-07T09:50:30.951Z,99240.77
2018-10-07T09:52:59.772Z,99244.47
2018-10-07T09:55:28.560Z,99247.91
2018-10-07T09:57:57.435Z,99245.11
2018-10-07T10:00:31.730Z,99246.52
2018-10-07T10:03:00.281Z,99248.56
2018-10-07T10:05:28.876Z,99250.86
2018-10-07T10:08:04.592Z,99257.14
2018-10-07T10:10:40.772Z,99266.86
2018-10-07T10:13:18.244Z,99262.05
2018-10-07T10:15:53.093Z,99260.36
2018-10-07T10:18:41.826Z,99261.69
2018-10-07T10:21:41.282Z,99263.45
2018-10-07T10:24:37.401Z,99268.08
2018-10-07T10:27:16.951Z,99263.23
2018-10-07T10:29:53.939Z,99265.48
2018-10-07T10:32:46.870Z,99271.69
2018-10-07T10:35:33.765Z,99271.61
2018-10-07T10:38:23.733Z,99273.64
2018-10-07T10:41:17.863Z,99277.78
2018-10-07T10:43:55.961Z,99282.05
2018-10-07T10:47:09.326Z,99283.56
2018-10-07T10:49:56.733Z,99289.60
2018-10-07T10:52:34.355Z,99288.19
2018-10-07T10:55:19.376Z,99294.27
2018-10-07T10:57:58.105Z,99287.95
2018-10-07T11:01:08.699Z,99292.31
2018-10-07T11:03:57.944Z,99295.52
2018-10-07T11:06:38.963Z,99302.91
2018-10-07T11:09:32.753Z,99292.58
2018-10-07T11:12:12.456Z,99301.72
2018-10-07T11:15:02.380Z,99300.39
2018-10-07T11:17:48.727Z,99301.09
2018-10-07T11:20:29.613Z,99293.77
2018-10-07T11:23:11.351Z,99300.39
2018-10-07T11:26:24.844Z,99299.95
2018-10-07T11:29:52.413Z,99311.48
2018-10-07T11:32:38.778Z,99311.59
2018-10-07T11:35:23.345Z,99314.69
2018-10-07T11:38:08.003Z,99315.16
2018-10-07T11:41:53.691Z,99324.06
2018-10-07T11:45:39.945Z,99319.17
2018-10-07T11:49:25.702Z,99321.98
2018-10-07T11:54:04.677Z,99317.84
2018-10-07T11:56:40.155Z,99328.23
2018-10-07T11:59:13.889Z,99319.17
2018-10-07T12:01:49.749Z,99319.09
2018-10-07T12:04:27.204Z,99320.08
2018-10-07T12:07:02.148Z,99322.36
2018-10-07T12:09:36.500Z,99327.46
2018-10-07T12:12:10.701Z,99327.72
2018-10-07T12:14:45.283Z,99322.84
2018-10-07T12:17:19.448Z,99331.00
2018-10-07T12:19:56.188Z,99334.34
2018-10-07T12:22:30.084Z,99329.73
2018-10-07T12:25:04.550Z,99324.44
2018-10-07T12:27:37.983Z,99334.70
2018-10-07T12:30:13.131Z,99335.29
2018-10-07T12:32:51.173Z,99334.44
2018-10-07T12:35:28.612Z,99328.88
2018-10-07T12:38:07.347Z,99327.19
2018-10-07T12:40:46.139Z,99325.35
2018-10-07T12:43:23.466Z,99335.99
2018-10-07T12:46:03.039Z,99335.87
2018-10-07T12:48:39.061Z,99328.88
2018-10-07T12:51:15.503Z,99332.52
2018-10-07T12:53:53.147Z,99336.33
2018-10-07T12:56:28.040Z,99336.87
2018-10-07T12:59:04.263Z,99338.13
2018-10-07T13:01:37.918Z,99334.28
2018-10-07T13:04:13.369Z,99341.71
2018-10-07T13:06:50.515Z,99337.52
2018-10-07T13:09:25.393Z,99334.11
2018-10-07T13:12:03.902Z,99340.39
2018-10-07T13:14:41.098Z,99343.98
2018-10-07T13:17:13.970Z,99346.42
2018-10-07T13:19:50.130Z,99348.61
2018-10-07T13:22:24.681Z,99364.67
2018-10-07T13:25:00.334Z,99363.55
2018-10-07T13:27:33.993Z,99367.45
2018-10-07T13:30:07.804Z,99370.44
2018-10-07T13:32:40.326Z,99368.60
2018-10-07T13:35:14.813Z,99372.51
2018-10-07T13:37:48.705Z,99373.71
2018-10-07T13:40:23.065Z,99377.61
2018-10-07T13:42:59.218Z,99379.05
2018-10-07T13:45:34.336Z,99378.33
2018-10-07T13:48:09.079Z,99385.17
2018-10-07T13:50:43.910Z,99382.01
2018-10-07T13:53:21.340Z,99379.76
2018-10-07T13:56:00.677Z,99377.50
2018-10-07T13:58:36.762Z,99380.13
2018-10-07T14:01:10.403Z,99384.47
2018-10-07T14:03:46.188Z,99389.31
2018-10-07T14:06:21.547Z,99382.74
2018-10-07T14:08:55.397Z,99392.48
2018-10-07T14:11:29.828Z,99403.19
2018-10-07T14:14:04.641Z,99402.83
2018-10-07T14:16:40.301Z,99402.07
2018-10-07T14:19:15.842Z,99410.42
2018-10-07T14:21:50.882Z,99411.63
2018-10-07T14:24:24.773Z,99412.14
2018-10-07T14:26:59.609Z,99413.30
2018-10-07T14:29:35.142Z,99417.88
2018-10-07T14:32:10.106Z,99412.53
2018-10-07T14:34:45.185Z,99416.48
2018-10-07T14:37:19.298Z,99410.93
2018-10-07T14:39:54.364Z,99412.00
2018-10-07T14:42:28.258Z,99408.81
2018-10-07T14:45:02.060Z,99411.89
2018-10-07T14:47:38.031Z,99415.77
2018-10-07T14:50:11.634Z,99417.98
2018-10-07T14:52:48.270Z,99427.91
2018-10-07T14:55:17.117Z,99432.27
2018-10-07T14:57:45.636Z,99424.03
2018-10-07T15:00:14.184Z,99433.23
2018-10-07T15:02:42.764Z,99431.78
2018-10-07T15:05:11.313Z,99425.10
2018-10-07T15:07:39.963Z,99428.72
2018-10-07T15:10:08.552Z,99424.09
2018-10-07T15:12:37.203Z,99428.36
2018-10-07T15:15:05.873Z,99405.22
2018-10-07T15:17:34.412Z,99430.28
2018-10-07T15:20:03.017Z,99428.23
2018-10-07T15:22:37.667Z,99421.52
2018-10-07T15:25:09.265Z,99427.71
2018-10-07T15:27:37.944Z,99421.80
2018-10-07T15:30:06.808Z,99421.53
2018-10-07T15:32:35.429Z,99423.53
2018-10-07T15:35:04.032Z,99421.23
2018-10-07T15:37:32.554Z,99420.02
2018-10-07T15:40:01.121Z,99420.80
2018-10-07T15:42:29.636Z,99417.97
2018-10-07T15:44:58.194Z,99414.12
2018-10-07T15:47:26.763Z,99409.62
2018-10-07T15:49:55.396Z,99409.98
2018-10-07T15:52:23.929Z,99412.06
2018-10-07T15:54:52.484Z,99415.65
2018-10-07T15:57:21.040Z,99420.75
2018-10-07T15:59:49.597Z,99416.69
2018-10-07T16:02:19.208Z,99418.17
2018-10-07T16:04:47.789Z,99418.83
2018-10-07T16:07:16.317Z,99422.65
2018-10-07T16:09:45.707Z,99431.24
2018-10-07T16:12:14.260Z,99426.34
2018-10-07T16:14:42.924Z,99427.21
2018-10-07T16:17:11.452Z,99434.15
2018-10-07T16:19:40.064Z,99447.04
2018-10-07T16:22:08.616Z,99443.94
2018-10-07T16:24:37.169Z,99451.13
2018-10-07T16:27:06.109Z,99448.28
2018-10-07T16:29:39.811Z,99452.22
2018-10-07T16:32:13.417Z,99453.47
2018-10-07T16:34:50.095Z,99459.42
2018-10-07T16:37:25.068Z,99462.96
2018-10-07T16:39:59.662Z,99467.33
2018-10-07T16:42:34.170Z,99468.06
2018-10-07T16:45:07.029Z,99475.52
2018-10-07T16:47:40.734Z,99470.61
2018-10-07T16:50:15.313Z,99486.58
2018-10-07T16:52:54.425Z,99491.53
2018-10-07T16:55:29.414Z,99494.77
2018-10-07T16:58:08.971Z,99488.66
2018-10-07T17:00:43.007Z,99491.62
2018-10-07T17:03:19.013Z,99487.20
2018-10-07T17:05:55.430Z,99497.28
2018-10-07T17:08:31.293Z,99503.03
2018-10-07T17:11:10.081Z,99500.39
2018-10-07T17:13:44.178Z,99517.13
2018-10-07T17:16:19.468Z,99520.37
2018-10-07T17:18:53.610Z,99524.87
2018-10-07T17:21:28.146Z,99522.11
2018-10-07T17:24:03.286Z,99530.25
2018-10-07T17:26:36.423Z,99536.97
2018-10-07T17:29:15.026Z,99539.94
2018-10-07T17:34:31.700Z,99552.88
2018-10-07T17:37:06.842Z,99553.47
2018-10-07T17:39:40.722Z,99565.35
2018-10-07T17:42:18.626Z,99567.27
2018-10-07T17:44:58.157Z,99574.47
2018-10-07T17:47:33.626Z,99582.61
2018-10-07T17:50:08.226Z,99588.03
2018-10-07T17:52:42.520Z,99593.09
2018-10-07T17:55:17.166Z,99597.56
2018-10-07T17:57:57.215Z,99601.14
2018-10-07T18:00:28.597Z,99606.29
2018-10-07T18:03:05.067Z,99603.89
2018-10-07T18:05:44.447Z,99604.76
2018-10-07T18:08:18.478Z,99602.12
2018-10-07T18:10:55.456Z,99603.48
2018-10-07T18:13:29.178Z,99604.14
2018-10-07T18:16:07.246Z,99610.35
2018-10-07T18:18:41.453Z,99611.88
2018-10-07T18:21:17.263Z,99608.73
2018-10-07T18:23:50.884Z,99622.41
2018-10-07T18:26:24.894Z,99628.01
2018-10-07T18:28:59.654Z,99633.83
2018-10-07T18:31:34.319Z,99638.45
2018-10-07T18:34:09.773Z,99642.36
2018-10-07T18:36:44.109Z,99642.22
2018-10-07T18:39:18.026Z,99647.01
2018-10-07T18:41:53.664Z,99645.79
2018-10-07T18:44:27.587Z,99648.55
2018-10-07T18:47:03.499Z,99650.28
2018-10-07T18:49:38.107Z,99650.81
2018-10-07T18:52:13.596Z,99657.00
2018-10-07T18:54:47.282Z,99650.08
2018-10-07T18:57:23.959Z,99648.76
2018-10-07T18:59:59.022Z,99657.17
2018-10-07T19:02:43.642Z,99671.38
2018-10-07T19:05:17.357Z,99679.44
2018-10-07T19:07:52.326Z,99678.03
2018-10-07T19:10:26.381Z,99691.49
2018-10-07T19:13:00.137Z,99689.97
2018-10-07T19:15:34.070Z,99691.55
2018-10-07T19:18:08.682Z,99696.77
2018-10-07T19:20:44.587Z,99694.71
2018-10-07T19:23:15.952Z,99697.44
2018-10-07T19:25:49.880Z,99699.98
2018-10-07T19:28:23.786Z,99700.23
2018-10-07T19:30:57.657Z,99709.55
2018-10-07T19:33:32.383Z,99710.58
2018-10-07T19:36:06.101Z,99711.20
2018-10-07T19:38:40.344Z,99711.47
2018-10-07T19:41:11.355Z,99716.00
2018-10-07T19:43:44.940Z,99721.09
2018-10-07T19:46:18.863Z,99724.71
2018-10-07T19:48:54.267Z,99735.84
2018-10-07T19:51:31.482Z,99733.56
2018-10-07T19:54:18.872Z,99738.48
2018-10-07T19:56:57.067Z,99736.49
2018-10-07T19:59:33.435Z,99739.31
2018-10-07T20:02:11.076Z,99737.73
2018-10-07T20:04:49.574Z,99742.44
2018-10-07T20:07:24.483Z,99749.56
2018-10-07T20:10:04.581Z,99746.76
2018-10-07T20:12:42.571Z,99749.94
2018-10-07T20:15:19.831Z,99753.72
2018-10-07T20:17:58.081Z,99762.55
2018-10-07T20:20:38.731Z,99765.64
2018-10-07T20:23:08.357Z,99773.45
2018-10-07T20:25:37.700Z,99774.20
2018-10-07T20:28:06.505Z,99777.39
2018-10-07T20:30:36.119Z,99774.49
2018-10-07T20:33:04.957Z,99763.50
2018-10-07T20:35:33.938Z,99773.45
2018-10-07T20:38:02.548Z,99784.73
2018-10-07T20:40:31.756Z,99776.84
2018-10-07T20:43:00.601Z,99774.95
2018-10-07T20:45:29.584Z,99781.36
2018-10-07T20:47:58.152Z,99782.10
2018-10-07T20:50:26.881Z,99781.53
2018-10-07T20:52:55.873Z,99780.04
2018-10-07T20:55:24.665Z,99777.59
2018-10-07T20:57:53.755Z,99779.30
2018-10-07T21:00:22.629Z,99782.30
2018-10-07T21:02:51.752Z,99777.57
2018-10-07T21:05:20.296Z,99787.74
2018-10-07T21:07:49.152Z,99782.63
2018-10-07T21:10:18.009Z,99781.02
2018-10-07T21:12:46.584Z,99777.36
2018-10-07T21:15:15.112Z,99771.41
2018-10-07T21:17:43.816Z,99772.46
2018-10-07T21:20:12.381Z,99769.44
2018-10-07T21:22:41.356Z,99766.63
2018-10-07T21:25:09.972Z,99768.03
2018-10-07T21:27:38.570Z,99769.35
2018-10-07T21:30:07.320Z,99768.69
2018-10-07T21:32:35.841Z,99765.85
2018-10-07T21:35:04.446Z,99768.83
2018-10-07T21:37:33.118Z,99766.02
2018-10-07T21:40:02.512Z,99767.94
2018-10-07T21:42:31.053Z,99765.05
2018-10-07T21:44:59.703Z,99765.44
2018-10-07T21:47:28.257Z,99761.52
2018-10-07T21:49:58.051Z,99759.46
2018-10-07T21:52:28.150Z,99754.14
2018-10-07T21:54:56.770Z,99756.75
2018-10-07T21:57:29.878Z,99763.41
2018-10-07T21:59:58.823Z,99767.52
2018-10-07T22:02:27.789Z,99762.52
2018-10-07T22:04:56.343Z,99761.29
2018-10-07T22:07:24.908Z,99765.22
2018-10-07T22:09:53.495Z,99759.73
2018-10-07T22:12:22.157Z,99758.48
2018-10-07T22:14:50.685Z,99754.10
2018-10-07T22:17:19.252Z,99760.11
2018-10-07T22:19:47.903Z,99752.62
2018-10-07T22:22:16.435Z,99745.50
2018-10-07T22:24:44.990Z,99743.06
2018-10-07T22:27:13.569Z,99744.52
2018-10-07T22:29:42.118Z,99746.44
2018-10-07T22:32:10.693Z,99742.28
2018-10-07T22:34:39.247Z,99746.83
2018-10-07T22:37:07.820Z,99746.64
2018-10-07T22:39:36.356Z,99748.23
2018-10-07T22:42:04.905Z,99746.69
2018-10-07T22:44:33.484Z,99744.66
2018-10-07T22:47:02.137Z,99742.25
2018-10-07T22:49:30.733Z,99740.08
2018-10-07T22:51:59.286Z,99727.94
2018-10-07T22:54:27.874Z,99738.45
2018-10-07T22:56:56.437Z,99733.92
2018-10-07T22:59:25.021Z,99730.42
2018-10-07T23:01:53.619Z,99728.30
2018-10-07T23:04:22.203Z,99727.59
2018-10-07T23:06:50.760Z,99729.46
2018-10-07T23:09:19.339Z,99730.38
2018-10-07T23:11:47.940Z,99723.84
2018-10-07T23:14:16.592Z,99728.52
2018-10-07T23:16:45.128Z,99736.31
2018-10-07T23:19:13.680Z,99729.08
2018-10-07T23:21:42.240Z,99726.14
2018-10-07T23:24:11.569Z,99736.91
2018-10-07T23:26:40.133Z,99721.56
2018-10-07T23:29:08.659Z,99727.33
2018-10-07T23:31:37.217Z,99727.61
2018-10-07T23:34:05.753Z,99724.19
2018-10-07T23:36:34.313Z,99727.00
2018-10-07T23:39:02.848Z,99731.98
2018-10-07T23:41:31.442Z,99725.32
2018-10-07T23:43:59.958Z,99727.11
2018-10-07T23:46:28.502Z,99725.09
2018-10-07T23:48:57.008Z,99719.19
2018-10-07T23:51:25.544Z,99716.70
2018-10-07T23:53:54.128Z,99719.34
2018-10-07T23:56:22.715Z,99714.62
2018-10-07T23:58:51.325Z,99721.84
